createdAt,value
2018-01-21T00:01:35.410Z,5.30
2018-01-21T00:04:02.917Z,5.30
2018-01-21T00:06:30.421Z,5.30
2018-01-21T00:08:57.927Z,5.30
2018-01-21T00:11:26.188Z,5.30
2018-01-21T00:13:53.722Z,5.30
2018-01-21T00:16:21.990Z,5.30
2018-01-21T00:18:49.510Z,5.30
2018-01-21T00:21:17.013Z,5.30
2018-01-21T00:23:44.541Z,5.30
2018-01-21T00:26:12.038Z,5.30
2018-01-21T00:28:39.545Z,5.30
2018-01-21T00:31:07.050Z,5.30
2018-01-21T00:33:34.561Z,5.30
2018-01-21T00:36:02.065Z,5.30
2018-01-21T00:38:29.577Z,5.30
2018-01-21T00:40:57.077Z,5.30
2018-01-21T00:43:24.582Z,5.30
2018-01-21T00:45:52.078Z,5.30
2018-01-21T00:48:19.590Z,5.30
2018-01-21T00:50:47.849Z,5.20
2018-01-21T00:53:16.134Z,5.20
2018-01-21T00:55:44.405Z,5.20
2018-01-21T00:58:12.693Z,5.20
2018-01-21T01:00:40.945Z,5.20
2018-01-21T01:03:09.237Z,5.20
2018-01-21T01:05:36.751Z,5.10
2018-01-21T01:08:04.261Z,5.20
2018-01-21T01:10:32.520Z,5.10
2018-01-21T01:13:00.027Z,5.10
2018-01-21T01:15:27.525Z,5.10
2018-01-21T01:17:55.041Z,5.10
2018-01-21T01:20:22.546Z,5.10
2018-01-21T01:22:50.057Z,5.10
2018-01-21T01:25:17.557Z,5.10
2018-01-21T01:27:45.081Z,5.10
2018-01-21T01:30:12.577Z,5.10
2018-01-21T01:32:40.094Z,5.00
2018-01-21T01:35:07.617Z,5.00
2018-01-21T01:37:35.910Z,5.00
2018-01-21T01:40:03.401Z,5.00
2018-01-21T01:42:30.931Z,5.00
2018-01-21T01:44:58.438Z,5.00
2018-01-21T01:47:25.944Z,5.00
2018-01-21T01:49:54.205Z,5.00
2018-01-21T01:52:22.471Z,5.00
2018-01-21T01:54:49.981Z,4.90
2018-01-21T01:57:17.493Z,4.90
2018-01-21T01:59:45.787Z,4.90
2018-01-21T02:02:14.059Z,4.90
2018-01-21T02:04:42.334Z,4.90
2018-01-21T02:07:10.596Z,4.90
2018-01-21T02:09:38.113Z,4.90
2018-01-21T02:12:05.614Z,4.90
2018-01-21T02:14:33.908Z,4.90
2018-01-21T02:17:02.160Z,4.90
2018-01-21T02:19:29.673Z,4.90
2018-01-21T02:21:57.168Z,4.90
2018-01-21T02:24:24.682Z,4.90
2018-01-21T02:26:52.177Z,4.90
2018-01-21T02:29:19.689Z,4.90
2018-01-21T02:31:47.179Z,4.90
2018-01-21T02:34:14.689Z,4.90
2018-01-21T02:36:42.960Z,4.90
2018-01-21T02:39:11.245Z,4.90
2018-01-21T02:41:39.510Z,4.90
2018-01-21T02:44:07.017Z,4.90
2018-01-21T02:46:34.505Z,4.90
2018-01-21T02:49:02.014Z,4.90
2018-01-21T02:51:29.522Z,4.80
2018-01-21T02:53:57.037Z,4.90
2018-01-21T02:56:24.542Z,4.80
2018-01-21T02:58:52.059Z,4.80
2018-01-21T03:01:19.546Z,4.80
2018-01-21T03:03:47.061Z,4.90
2018-01-21T03:06:14.565Z,4.80
2018-01-21T03:08:42.076Z,4.80
2018-01-21T03:11:09.588Z,4.80
2018-01-21T03:13:37.101Z,4.80
2018-01-21T03:16:04.599Z,4.80
2018-01-21T03:18:32.126Z,4.80
2018-01-21T03:20:59.627Z,4.80
2018-01-21T03:23:27.198Z,4.80
2018-01-21T03:25:54.697Z,4.80
2018-01-21T03:28:22.214Z,4.40
2018-01-21T03:30:49.714Z,4.80
2018-01-21T03:33:17.241Z,4.80
2018-01-21T03:35:44.734Z,4.80
2018-01-21T03:38:12.308Z,4.80
2018-01-21T03:40:39.806Z,4.80
2018-01-21T03:43:07.356Z,4.80
2018-01-21T03:45:34.848Z,4.80
2018-01-21T03:48:03.125Z,4.80
2018-01-21T03:50:31.402Z,4.70
2018-01-21T03:52:59.674Z,4.70
2018-01-21T03:55:27.184Z,4.70
2018-01-21T03:57:54.689Z,4.70
2018-01-21T04:00:22.217Z,4.70
2018-01-21T04:02:49.705Z,4.70
2018-01-21T04:05:17.239Z,4.70
2018-01-21T04:07:44.734Z,4.70
2018-01-21T04:10:13.012Z,4.70
2018-01-21T04:12:41.267Z,4.70
2018-01-21T04:15:08.777Z,4.70
2018-01-21T04:17:36.317Z,4.70
2018-01-21T04:20:03.833Z,4.70
2018-01-21T04:22:31.333Z,4.70
2018-01-21T04:24:59.609Z,4.70
2018-01-21T04:27:27.113Z,4.70
2018-01-21T04:29:54.629Z,4.70
2018-01-21T04:32:22.881Z,4.70
2018-01-21T04:34:50.386Z,4.70
2018-01-21T04:37:17.877Z,4.70
2018-01-21T04:39:45.385Z,4.70
2018-01-21T04:42:12.919Z,4.70
2018-01-21T04:44:40.427Z,4.70
2018-01-21T04:47:07.954Z,4.70
2018-01-21T04:49:36.248Z,4.70
2018-01-21T04:52:03.745Z,4.60
2018-01-21T04:54:31.255Z,4.70
2018-01-21T04:56:59.517Z,4.70
2018-01-21T04:59:27.800Z,4.70
2018-01-21T05:01:56.065Z,4.60
2018-01-21T05:04:23.585Z,4.60
2018-01-21T05:06:51.116Z,4.60
2018-01-21T05:09:18.634Z,4.60
2018-01-21T05:11:46.131Z,4.70
2018-01-21T05:14:13.646Z,4.60
2018-01-21T05:16:41.167Z,4.60
2018-01-21T05:19:08.684Z,4.70
2018-01-21T05:21:36.948Z,4.70
2018-01-21T05:24:04.458Z,4.60
2018-01-21T05:26:31.965Z,4.70
2018-01-21T05:28:59.476Z,4.70
2018-01-21T05:31:26.978Z,4.70
2018-01-21T05:33:54.505Z,4.70
2018-01-21T05:36:21.998Z,4.70
2018-01-21T05:38:49.517Z,4.70
2018-01-21T05:41:17.015Z,4.70
2018-01-21T05:43:44.527Z,4.70
2018-01-21T05:46:12.030Z,4.70
2018-01-21T05:48:39.528Z,4.70
2018-01-21T05:51:07.811Z,4.70
2018-01-21T05:53:36.088Z,4.70
2018-01-21T05:56:04.356Z,4.70
2018-01-21T05:58:32.612Z,4.70
2018-01-21T06:01:00.130Z,4.70
2018-01-21T06:03:27.630Z,4.70
2018-01-21T06:05:55.244Z,4.80
2018-01-21T06:08:22.742Z,4.80
2018-01-21T06:10:50.272Z,4.80
2018-01-21T06:13:17.765Z,4.80
2018-01-21T06:15:45.298Z,4.80
2018-01-21T06:18:13.578Z,4.70
2018-01-21T06:20:41.097Z,4.70
2018-01-21T06:23:08.593Z,4.70
2018-01-21T06:25:36.097Z,4.80
2018-01-21T06:28:04.361Z,4.80
2018-01-21T06:30:31.885Z,4.80
2018-01-21T06:32:59.386Z,4.80
2018-01-21T06:35:27.673Z,4.80
2018-01-21T06:37:55.943Z,4.70
2018-01-21T06:40:24.226Z,4.70
2018-01-21T06:42:52.476Z,4.70
2018-01-21T06:45:19.994Z,4.70
2018-01-21T06:47:47.494Z,4.70
2018-01-21T06:50:15.015Z,4.70
2018-01-21T06:52:42.528Z,4.70
2018-01-21T06:55:10.815Z,4.60
2018-01-21T06:57:39.074Z,4.70
2018-01-21T07:00:06.602Z,4.60
2018-01-21T07:02:34.101Z,4.70
2018-01-21T07:05:01.613Z,4.60
2018-01-21T07:07:29.101Z,4.70
2018-01-21T07:09:57.413Z,4.70
2018-01-21T07:12:25.687Z,4.60
2018-01-21T07:14:53.984Z,4.60
2018-01-21T07:17:21.498Z,4.60
2018-01-21T07:19:49.998Z,4.60
2018-01-21T07:22:18.266Z,4.60
2018-01-21T07:24:45.796Z,4.60
2018-01-21T07:27:13.305Z,4.60
2018-01-21T07:29:41.702Z,4.60
2018-01-21T07:32:09.206Z,4.50
2018-01-21T07:34:36.727Z,4.50
2018-01-21T07:37:04.222Z,4.50
2018-01-21T07:39:31.737Z,4.40
2018-01-21T07:41:59.234Z,4.50
2018-01-21T07:44:26.763Z,4.40
2018-01-21T07:46:54.257Z,4.50
2018-01-21T07:49:21.758Z,4.50
2018-01-21T07:51:50.038Z,4.50
2018-01-21T07:54:17.559Z,4.50
2018-01-21T07:56:45.085Z,4.50
2018-01-21T07:59:12.578Z,4.50
2018-01-21T08:01:40.107Z,4.50
2018-01-21T08:04:07.594Z,4.50
2018-01-21T08:06:35.129Z,4.50
2018-01-21T08:09:02.626Z,4.40
2018-01-21T08:11:30.162Z,4.50
2018-01-21T08:13:57.667Z,4.40
2018-01-21T08:16:25.186Z,4.40
2018-01-21T08:18:52.723Z,4.40
2018-01-21T08:21:20.233Z,4.40
2018-01-21T08:23:48.503Z,4.40
2018-01-21T08:26:16.024Z,4.30
2018-01-21T08:28:43.541Z,4.40
2018-01-21T08:31:11.053Z,4.30
2018-01-21T08:33:39.321Z,4.30
2018-01-21T08:36:12.550Z,4.30
2018-01-21T08:38:46.465Z,4.30
2018-01-21T08:41:32.662Z,4.30
2018-01-21T08:44:00.173Z,4.30
2018-01-21T08:46:27.712Z,4.30
2018-01-21T08:48:55.206Z,4.30
2018-01-21T08:51:22.788Z,4.30
2018-01-21T08:53:51.062Z,4.30
2018-01-21T08:56:18.574Z,4.30
2018-01-21T08:58:46.076Z,4.30
2018-01-21T09:01:13.585Z,4.30
2018-01-21T09:03:41.074Z,4.30
2018-01-21T09:06:08.611Z,4.30
2018-01-21T09:08:36.128Z,4.30
2018-01-21T09:11:04.420Z,4.30
2018-01-21T09:13:31.952Z,4.30
2018-01-21T09:15:59.461Z,4.30
2018-01-21T09:18:26.953Z,4.30
2018-01-21T09:20:54.469Z,4.30
2018-01-21T09:23:21.980Z,4.30
2018-01-21T09:25:49.510Z,4.40
2018-01-21T09:28:17.014Z,4.40
2018-01-21T09:30:45.301Z,4.40
2018-01-21T09:33:13.561Z,4.40
2018-01-21T09:35:41.082Z,4.40
2018-01-21T09:38:08.588Z,4.50
2018-01-21T09:40:36.865Z,4.40
2018-01-21T09:43:05.152Z,4.50
2018-01-21T09:45:33.744Z,4.50
2018-01-21T09:48:02.008Z,4.50
2018-01-21T09:50:30.288Z,4.60
2018-01-21T09:52:58.553Z,4.60
2018-01-21T09:55:27.001Z,4.60
2018-01-21T09:57:54.493Z,4.60
2018-01-21T10:00:22.749Z,4.70
2018-01-21T10:02:50.277Z,4.70
2018-01-21T10:05:17.780Z,4.70
2018-01-21T10:07:45.299Z,4.80
2018-01-21T10:10:12.797Z,4.80
2018-01-21T10:12:40.324Z,4.80
2018-01-21T10:15:07.849Z,4.80
2018-01-21T10:17:35.357Z,4.80
2018-01-21T10:20:02.877Z,4.80
2018-01-21T10:22:30.377Z,4.80
2018-01-21T10:24:57.897Z,4.80
2018-01-21T10:27:25.846Z,4.80
2018-01-21T10:29:54.130Z,4.80
2018-01-21T10:32:22.413Z,4.80
2018-01-21T10:34:49.929Z,4.80
2018-01-21T10:37:17.476Z,4.80
2018-01-21T10:39:44.981Z,4.90
2018-01-21T10:42:13.285Z,5.00
2018-01-21T10:44:40.790Z,4.90
2018-01-21T10:47:08.309Z,5.00
2018-01-21T10:49:35.805Z,5.00
2018-01-21T10:52:04.933Z,5.10
2018-01-21T10:54:33.196Z,5.10
2018-01-21T10:57:01.489Z,5.00
2018-01-21T10:59:29.790Z,5.10
2018-01-21T11:01:57.330Z,5.10
2018-01-21T11:04:24.856Z,5.10
2018-01-21T11:06:52.374Z,5.10
2018-01-21T11:09:19.890Z,5.10
2018-01-21T11:11:47.409Z,5.10
2018-01-21T11:14:14.922Z,5.20
2018-01-21T11:16:43.202Z,5.20
2018-01-21T11:19:10.723Z,5.20
2018-01-21T11:21:38.242Z,5.20
2018-01-21T11:24:05.758Z,5.30
2018-01-21T11:26:34.075Z,5.30
2018-01-21T11:29:01.610Z,5.30
2018-01-21T11:31:29.181Z,5.30
2018-01-21T11:33:57.453Z,5.40
2018-01-21T11:36:24.962Z,5.40
2018-01-21T11:38:52.489Z,5.40
2018-01-21T11:41:19.989Z,5.40
2018-01-21T11:43:47.514Z,5.40
2018-01-21T11:46:15.756Z,5.40
2018-01-21T11:48:44.068Z,5.40
2018-01-21T11:51:11.625Z,5.40
2018-01-21T11:53:39.218Z,5.40
2018-01-21T11:56:07.224Z,5.40
2018-01-21T11:58:34.817Z,5.40
2018-01-21T12:01:02.354Z,5.40
2018-01-21T12:03:30.126Z,5.40
2018-01-21T12:05:57.638Z,5.30
2018-01-21T12:08:25.151Z,5.40
2018-01-21T12:10:52.654Z,5.40
2018-01-21T12:13:20.276Z,5.40
2018-01-21T12:15:47.831Z,5.40
2018-01-21T12:18:15.366Z,5.40
2018-01-21T12:20:43.657Z,5.40
2018-01-21T12:23:11.224Z,5.40
2018-01-21T12:25:38.739Z,5.50
2018-01-21T12:28:06.233Z,5.50
2018-01-21T12:30:33.778Z,5.50
2018-01-21T12:33:02.079Z,5.60
2018-01-21T12:35:29.656Z,5.50
2018-01-21T12:37:57.141Z,5.60
2018-01-21T12:40:25.472Z,5.60
2018-01-21T12:42:53.018Z,5.60
2018-01-21T12:45:20.541Z,5.60
2018-01-21T12:47:48.057Z,5.60
2018-01-21T12:50:15.604Z,5.60
2018-01-21T12:52:43.137Z,5.60
2018-01-21T12:55:10.644Z,5.60
2018-01-21T12:57:38.157Z,5.60
2018-01-21T13:00:05.686Z,5.60
2018-01-21T13:02:33.241Z,5.70
2018-01-21T13:05:00.767Z,5.70
2018-01-21T13:07:29.063Z,5.60
2018-01-21T13:09:56.574Z,5.60
2018-01-21T13:12:24.105Z,5.60
2018-01-21T13:14:51.626Z,5.60
2018-01-21T13:17:19.130Z,5.60
2018-01-21T13:19:46.634Z,5.70
2018-01-21T13:22:14.123Z,5.70
2018-01-21T13:24:41.625Z,5.60
2018-01-21T13:27:09.153Z,5.60
2018-01-21T13:29:36.673Z,5.70
2018-01-21T13:32:04.775Z,5.80
2018-01-21T13:34:32.317Z,5.80
2018-01-21T13:37:00.389Z,5.80
2018-01-21T13:39:27.886Z,5.80
2018-01-21T13:41:55.407Z,5.80
2018-01-21T13:44:22.997Z,5.90
2018-01-21T13:46:50.631Z,5.80
2018-01-21T13:49:18.132Z,5.80
2018-01-21T13:51:45.641Z,5.80
2018-01-21T13:54:13.127Z,5.80
2018-01-21T13:56:40.663Z,5.80
2018-01-21T13:59:08.174Z,5.80
2018-01-21T14:01:35.661Z,5.80
2018-01-21T14:04:04.072Z,5.70
2018-01-21T14:06:32.805Z,5.70
2018-01-21T14:09:00.306Z,5.70
2018-01-21T14:11:27.806Z,5.70
2018-01-21T14:13:55.333Z,5.60
2018-01-21T14:16:22.870Z,5.60
2018-01-21T14:18:50.444Z,5.60
2018-01-21T14:21:17.930Z,5.60
2018-01-21T14:23:45.458Z,5.50
2018-01-21T14:26:12.991Z,5.40
2018-01-21T14:28:41.322Z,5.30
2018-01-21T14:31:08.827Z,5.30
2018-01-21T14:33:39.191Z,5.20
2018-01-21T14:36:06.701Z,5.20
2018-01-21T14:38:34.208Z,5.20
2018-01-21T14:41:01.774Z,5.10
2018-01-21T14:43:29.293Z,5.10
2018-01-21T14:45:57.552Z,5.10
2018-01-21T14:48:25.069Z,5.10
2018-01-21T14:50:52.613Z,5.10
2018-01-21T14:53:20.134Z,5.10
2018-01-21T14:55:47.625Z,5.00
2018-01-21T14:58:15.196Z,5.00
2018-01-21T15:00:42.808Z,4.90
2018-01-21T15:03:10.343Z,4.90
2018-01-21T15:05:37.883Z,4.90
2018-01-21T15:08:05.378Z,4.90
2018-01-21T15:10:32.981Z,4.80
2018-01-21T15:13:01.240Z,4.80
2018-01-21T15:15:29.521Z,4.80
2018-01-21T15:17:57.849Z,4.70
2018-01-21T15:20:25.374Z,4.70
2018-01-21T15:22:52.881Z,4.70
2018-01-21T15:25:20.405Z,4.70
2018-01-21T15:27:47.904Z,4.70
2018-01-21T15:30:15.414Z,4.70
2018-01-21T15:32:42.914Z,4.70
2018-01-21T15:35:10.441Z,4.70
2018-01-21T15:37:37.998Z,4.60
2018-01-21T15:40:06.263Z,4.60
2018-01-21T15:42:33.813Z,4.60
2018-01-21T15:45:02.130Z,4.50
2018-01-21T15:47:29.677Z,4.50
2018-01-21T15:49:57.252Z,4.50
2018-01-21T15:52:24.753Z,4.50
2018-01-21T15:54:52.312Z,4.50
2018-01-21T15:57:19.851Z,4.50
2018-01-21T15:59:47.390Z,4.40
2018-01-21T16:02:15.043Z,4.40
2018-01-21T16:04:42.603Z,4.40
2018-01-21T16:07:11.652Z,4.30
2018-01-21T16:09:39.949Z,4.30
2018-01-21T16:12:08.253Z,4.30
2018-01-21T16:14:35.822Z,4.30
2018-01-21T16:17:03.339Z,4.20
2018-01-21T16:19:31.628Z,4.20
2018-01-21T16:21:59.918Z,4.20
2018-01-21T16:24:27.472Z,4.20
2018-01-21T16:26:55.001Z,4.20
2018-01-21T16:29:22.499Z,4.10
2018-01-21T16:31:50.022Z,4.10
2018-01-21T16:34:17.553Z,4.10
2018-01-21T16:36:45.141Z,4.10
2018-01-21T16:39:12.705Z,4.00
2018-01-21T16:41:41.114Z,4.00
2018-01-21T16:44:08.665Z,4.00
2018-01-21T16:46:36.200Z,3.90
2018-01-21T16:49:03.757Z,3.90
2018-01-21T16:51:31.277Z,3.90
2018-01-21T16:53:58.833Z,3.80
2018-01-21T16:56:26.420Z,3.80
2018-01-21T16:58:53.930Z,3.80
2018-01-21T17:01:21.621Z,3.70
2018-01-21T17:03:49.191Z,3.70
2018-01-21T17:06:16.700Z,3.70
2018-01-21T17:08:44.957Z,3.70
2018-01-21T17:11:12.521Z,3.60
2018-01-21T17:13:40.787Z,3.70
2018-01-21T17:16:08.331Z,3.60
2018-01-21T17:18:35.821Z,3.60
2018-01-21T17:21:04.185Z,3.60
2018-01-21T17:23:31.729Z,3.60
2018-01-21T17:25:59.307Z,3.60
2018-01-21T17:28:27.589Z,3.50
2018-01-21T17:30:56.045Z,3.50
2018-01-21T17:33:23.584Z,3.50
2018-01-21T17:35:51.101Z,3.50
2018-01-21T17:38:19.429Z,3.50
2018-01-21T17:40:46.972Z,3.50
2018-01-21T17:43:14.491Z,3.50
2018-01-21T17:45:42.797Z,3.40
2018-01-21T17:48:10.385Z,3.40
2018-01-21T17:50:38.690Z,3.40
2018-01-21T17:53:06.244Z,3.40
2018-01-21T17:55:33.729Z,3.40
2018-01-21T17:58:01.230Z,3.40
2018-01-21T18:00:28.733Z,3.30
2018-01-21T18:02:56.253Z,3.30
2018-01-21T18:05:23.748Z,3.30
2018-01-21T18:07:51.269Z,3.30
2018-01-21T18:10:18.825Z,3.30
2018-01-21T18:12:46.405Z,3.30
2018-01-21T18:15:13.899Z,3.20
2018-01-21T18:17:41.442Z,3.20
2018-01-21T18:20:08.937Z,3.20
2018-01-21T18:22:36.621Z,3.20
2018-01-21T18:25:04.194Z,3.20
2018-01-21T18:27:31.761Z,3.20
2018-01-21T18:29:59.259Z,3.10
2018-01-21T18:32:27.549Z,3.10
2018-01-21T18:34:55.078Z,3.10
2018-01-21T18:37:22.635Z,3.10
2018-01-21T18:39:50.147Z,3.10
2018-01-21T18:42:17.715Z,3.00
2018-01-21T18:44:45.231Z,3.00
2018-01-21T18:47:13.570Z,3.00
2018-01-21T18:49:41.077Z,3.00
2018-01-21T18:52:09.372Z,2.90
2018-01-21T18:54:36.912Z,2.90
2018-01-21T18:57:05.258Z,2.90
2018-01-21T18:59:32.749Z,2.90
2018-01-21T19:02:01.089Z,2.90
2018-01-21T19:04:28.640Z,2.90
2018-01-21T19:06:56.158Z,2.90
2018-01-21T19:09:23.717Z,2.80
2018-01-21T19:11:52.073Z,2.80
2018-01-21T19:14:19.624Z,2.80
2018-01-21T19:16:47.189Z,2.80
2018-01-21T19:19:14.733Z,2.80
2018-01-21T19:21:43.066Z,2.70
2018-01-21T19:24:10.658Z,2.70
2018-01-21T19:26:38.224Z,2.70
2018-01-21T19:29:05.836Z,2.70
2018-01-21T19:31:33.357Z,2.60
2018-01-21T19:34:00.928Z,2.60
2018-01-21T19:36:28.478Z,2.60
2018-01-21T19:39:11.657Z,2.50
2018-01-21T19:41:44.786Z,2.60
2018-01-21T19:44:31.082Z,2.50
2018-01-21T19:46:58.648Z,2.50
2018-01-21T19:49:26.213Z,2.40
2018-01-21T19:51:53.762Z,2.40
2018-01-21T19:54:21.372Z,2.40
2018-01-21T19:56:49.636Z,2.40
2018-01-21T19:59:17.933Z,2.40
2018-01-21T20:01:45.438Z,2.30
2018-01-21T20:04:13.030Z,2.30
2018-01-21T20:06:40.569Z,2.30
2018-01-21T20:09:08.212Z,2.30
2018-01-21T20:11:35.779Z,2.30
2018-01-21T20:14:03.341Z,2.30
2018-01-21T20:16:30.884Z,2.20
2018-01-21T20:18:58.521Z,2.20
2018-01-21T20:21:26.074Z,2.20
2018-01-21T20:23:54.426Z,2.10
2018-01-21T20:26:21.983Z,2.10
2018-01-21T20:28:49.510Z,2.10
2018-01-21T20:31:17.105Z,2.10
2018-01-21T20:33:44.678Z,2.10
2018-01-21T20:36:12.253Z,2.10
2018-01-21T20:38:40.581Z,2.00
2018-01-21T20:41:08.124Z,2.00
2018-01-21T20:43:35.634Z,2.00
2018-01-21T20:46:03.941Z,1.90
2018-01-21T20:48:31.629Z,1.90
2018-01-21T20:51:04.803Z,1.90
2018-01-21T20:53:37.929Z,1.90
2018-01-21T20:56:05.501Z,1.90
2018-01-21T20:58:33.027Z,1.80
2018-01-21T21:01:00.562Z,1.80
2018-01-21T21:03:28.137Z,1.80
2018-01-21T21:05:55.729Z,1.70
2018-01-21T21:08:23.334Z,1.80
2018-01-21T21:10:51.589Z,1.70
2018-01-21T21:13:19.194Z,1.70
2018-01-21T21:15:46.704Z,1.70
2018-01-21T21:18:14.217Z,1.70
2018-01-21T21:20:41.745Z,1.70
2018-01-21T21:23:10.061Z,1.60
2018-01-21T21:25:38.654Z,1.60
2018-01-21T21:28:06.204Z,1.60
2018-01-21T21:30:33.764Z,1.60
2018-01-21T21:33:01.318Z,1.60
2018-01-21T21:35:28.842Z,1.60
2018-01-21T21:37:57.117Z,1.50
2018-01-21T21:40:25.441Z,1.50
2018-01-21T21:42:52.933Z,1.50
2018-01-21T21:45:20.484Z,1.50
2018-01-21T21:47:47.981Z,1.50
2018-01-21T21:50:16.313Z,1.40
2018-01-21T21:52:43.856Z,1.40
2018-01-21T21:55:11.374Z,1.40
2018-01-21T21:57:39.692Z,1.40
2018-01-21T22:00:07.214Z,1.40
2018-01-21T22:02:35.511Z,1.30
2018-01-21T22:05:03.081Z,1.30
2018-01-21T22:07:30.606Z,1.30
2018-01-21T22:09:58.884Z,1.30
2018-01-21T22:12:27.208Z,1.30
2018-01-21T22:14:54.782Z,1.30
2018-01-21T22:17:22.369Z,1.40
2018-01-21T22:19:50.078Z,1.30
2018-01-21T22:22:17.626Z,1.30
2018-01-21T22:24:45.188Z,1.20
2018-01-21T22:27:12.689Z,1.20
2018-01-21T22:29:40.202Z,1.20
2018-01-21T22:32:07.744Z,1.20
2018-01-21T22:34:36.021Z,1.20
2018-01-21T22:37:04.294Z,1.20
2018-01-21T22:39:32.574Z,1.20
2018-01-21T22:42:00.854Z,1.20
2018-01-21T22:44:29.179Z,1.20
2018-01-21T22:46:56.719Z,1.20
2018-01-21T22:49:24.280Z,1.20
2018-01-21T22:51:51.828Z,1.20
2018-01-21T22:54:19.336Z,1.20
2018-01-21T22:56:46.830Z,1.20
2018-01-21T22:59:15.151Z,1.20
2018-01-21T23:01:42.649Z,1.20
2018-01-21T23:04:10.201Z,1.20
2018-01-21T23:06:37.694Z,1.20
2018-01-21T23:09:05.215Z,1.30
2018-01-21T23:11:33.497Z,1.30
2018-01-21T23:14:01.010Z,1.20
2018-01-21T23:16:28.520Z,1.30
2018-01-21T23:18:56.791Z,1.30
2018-01-21T23:21:24.297Z,1.30
2018-01-21T23:23:51.798Z,1.30
2018-01-21T23:26:19.313Z,1.30
2018-01-21T23:28:46.805Z,1.30
2018-01-21T23:31:14.317Z,1.40
2018-01-21T23:33:41.812Z,1.40
2018-01-21T23:36:09.326Z,1.40
2018-01-21T23:38:37.610Z,1.50
2018-01-21T23:41:05.893Z,1.50
2018-01-21T23:43:34.160Z,1.50
2018-01-21T23:46:02.437Z,1.50
2018-01-21T23:48:30.717Z,1.50
2018-01-21T23:50:58.994Z,1.50
2018-01-21T23:53:26.492Z,1.50
2018-01-21T23:55:54.000Z,1.60
2018-01-21T23:58:22.265Z,1.60
